Time;durP1;ratioP1;P1;durP2;ratioP2;P2;SDS_P1;SDS_P2;PMS_P1;PMS_P2;Temp;Humidity;BMP_temperature;BMP_pressure;BME280_temperature;BME280_humidity;BME280_pressure;Samples;Min_cycle;Max_cycle;Signal;HPM_P1;HPM_P2
2021/01/13 00:00:08;;;;;;;26.23;11.83;;;;;;;17.43;35.24;155705.41;1725874;82;21163;-72
2021/01/13 00:02:43;;;;;;;26.82;11.60;;;;;;;17.25;35.40;155657.84;1723308;83;21330;-72
2021/01/13 00:05:16;;;;;;;25.12;11.80;;;;;;;17.39;35.26;155693.55;1727799;82;21727;-73
2021/01/13 00:07:52;;;;;;;31.35;12.63;;;;;;;17.40;35.30;155697.47;1764101;81;21179;-72
2021/01/13 00:10:26;;;;;;;25.17;11.75;;;;;;;17.44;35.38;155708.05;1746537;82;21217;-72
2021/01/13 00:12:58;;;;;;;31.57;13.62;;;;;;;17.18;35.38;155639.41;1709598;84;21338;-72
2021/01/13 00:15:31;;;;;;;25.50;11.30;;;;;;;17.24;35.45;155655.22;1710146;82;21321;-72
2021/01/13 00:18:03;;;;;;;27.87;12.63;;;;;;;17.34;35.49;155680.33;1711634;81;21329;-72
2021/01/13 00:20:35;;;;;;;28.57;12.78;;;;;;;17.36;35.43;155686.91;1736933;82;21336;-72
2021/01/13 00:23:07;;;;;;;24.77;11.50;;;;;;;17.50;35.37;155722.56;1722454;83;22454;-72
2021/01/13 00:25:40;;;;;;;15.35;8.18;;;;;;;17.62;35.17;155754.20;1723458;83;21366;-72
2021/01/13 00:28:12;;;;;;;15.25;8.28;;;;;;;17.52;34.76;155727.84;1723314;82;21236;-72
2021/01/13 00:30:44;;;;;;;15.35;8.40;;;;;;;17.37;34.95;155689.55;1697805;83;21200;-72
2021/01/13 00:33:16;;;;;;;12.93;7.53;;;;;;;17.31;35.10;155672.41;1723180;83;21731;-72
2021/01/13 00:35:49;;;;;;;12.37;7.67;;;;;;;17.02;35.23;155595.91;1720997;83;21332;-73
2021/01/13 00:38:21;;;;;;;15.40;7.95;;;;;;;17.13;35.21;155624.91;1715276;83;21384;-72
2021/01/13 00:40:54;;;;;;;12.40;6.75;;;;;;;17.17;35.21;155634.13;1715473;83;21240;-71
2021/01/13 00:43:27;;;;;;;12.05;6.12;;;;;;;17.13;35.05;155623.61;1695653;83;21352;-70
2021/01/13 00:45:59;;;;;;;13.48;7.08;;;;;;;17.13;35.00;155624.91;1724311;82;21384;-71
2021/01/13 00:48:31;;;;;;;13.68;7.17;;;;;;;16.99;35.09;155586.69;1730013;83;21403;-71
2021/01/13 00:51:04;;;;;;;15.10;8.45;;;;;;;16.82;34.98;155541.84;1729813;83;21326;-72
2021/01/13 00:53:37;;;;;;;12.40;6.72;;;;;;;16.74;34.96;155520.77;1729556;83;21718;-72
2021/01/13 00:56:09;;;;;;;15.78;7.55;;;;;;;16.42;35.26;155436.44;1729371;83;21364;-71
2021/01/13 00:58:41;;;;;;;14.00;6.90;;;;;;;16.34;35.36;155415.33;1728695;83;21907;-71
2021/01/13 01:01:15;;;;;;;14.45;6.95;;;;;;;16.45;35.37;155444.31;1725020;82;21221;-72
2021/01/13 01:03:48;;;;;;;14.40;7.42;;;;;;;16.55;35.33;155472.00;1711260;83;21194;-71
2021/01/13 01:06:20;;;;;;;12.45;6.75;;;;;;;16.69;35.41;155507.56;1729580;83;21320;-71
2021/01/13 01:08:53;;;;;;;13.93;7.47;;;;;;;16.77;35.15;155528.69;1729587;83;21827;-72
2021/01/13 01:11:32;;;;;;;13.48;8.13;;;;;;;16.74;35.15;155522.06;1729359;83;21332;-71
2021/01/13 01:14:10;;;;;;;15.30;8.25;;;;;;;16.74;35.11;155522.06;1729356;83;21365;-72
2021/01/13 01:16:43;;;;;;;17.87;8.58;;;;;;;16.69;35.08;155508.92;1710366;83;21202;-73
2021/01/13 01:19:16;;;;;;;14.05;7.25;;;;;;;16.66;35.04;155501.00;1707291;84;21888;-71
2021/01/13 01:21:49;;;;;;;13.83;7.15;;;;;;;16.63;35.01;155491.78;1680014;84;21337;-72
2021/01/13 01:24:22;;;;;;;15.20;7.60;;;;;;;16.57;34.94;155477.28;1707176;84;21221;-72
2021/01/13 01:26:54;;;;;;;10.75;6.40;;;;;;;16.61;34.99;155487.78;1708608;82;21190;-72
2021/01/13 01:29:27;;;;;;;14.75;7.20;;;;;;;16.63;34.83;155491.78;1707279;84;21229;-72
2021/01/13 01:31:59;;;;;;;11.35;6.85;;;;;;;16.58;34.84;155478.58;1728133;83;21356;-72
2021/01/13 01:34:32;;;;;;;13.20;7.58;;;;;;;16.55;34.85;155472.00;1729552;83;21356;-71
2021/01/13 01:37:04;;;;;;;13.62;7.15;;;;;;;16.58;34.78;155479.92;1729361;83;21368;-71
2021/01/13 01:39:36;;;;;;;17.40;9.23;;;;;;;16.58;34.97;155479.92;1733853;82;21321;-71
2021/01/13 01:42:13;;;;;;;15.35;9.18;;;;;;;16.63;34.73;155493.08;1736588;82;22614;-71
2021/01/13 01:44:45;;;;;;;14.80;8.60;;;;;;;16.61;34.72;155487.78;1741614;82;21266;-72
2021/01/13 01:47:18;;;;;;;17.90;8.75;;;;;;;16.56;34.76;155474.64;1712913;84;21211;-72
2021/01/13 01:49:50;;;;;;;15.75;8.65;;;;;;;16.52;34.76;155464.08;1712589;84;21381;-72
2021/01/13 01:52:23;;;;;;;18.00;9.75;;;;;;;16.46;34.80;155446.95;1712705;84;21940;-72
2021/01/13 01:54:57;;;;;;;17.05;9.28;;;;;;;16.19;34.81;155375.78;1711605;84;21325;-72
2021/01/13 01:57:29;;;;;;;17.30;9.15;;;;;;;16.48;34.83;155453.56;1711197;84;21857;-71
2021/01/13 02:00:11;;;;;;;20.02;9.63;;;;;;;16.55;34.81;155470.72;1723684;83;21321;-72
2021/01/13 02:02:50;;;;;;;18.62;9.00;;;;;;;16.33;34.92;155412.69;1727007;83;21313;-71
2021/01/13 02:05:22;;;;;;;13.78;8.15;;;;;;;16.52;34.67;155462.78;1712633;84;21404;-71
2021/01/13 02:07:55;;;;;;;16.02;9.23;;;;;;;16.46;34.78;155446.95;1712802;84;21198;-72
2021/01/13 02:10:27;;;;;;;15.83;8.25;;;;;;;16.51;34.73;155461.44;1712498;82;21851;-71
2021/01/13 02:13:04;;;;;;;18.70;8.33;;;;;;;16.54;34.58;155469.36;1712708;84;21329;-72
2021/01/13 02:15:38;;;;;;;15.03;8.53;;;;;;;16.59;34.66;155481.22;1712896;82;21435;-73
2021/01/13 02:18:11;;;;;;;16.62;8.90;;;;;;;16.48;34.66;155453.56;1723677;83;21326;-72
2021/01/13 02:20:46;;;;;;;23.18;9.75;;;;;;;16.53;34.78;155465.42;1712960;84;21208;-72
2021/01/13 02:23:35;;;;;;;16.62;9.35;;;;;;;16.41;34.93;155433.81;1732308;82;21412;-72
2021/01/13 02:26:27;;;;;;;18.73;9.35;;;;;;;16.39;34.93;155429.81;1736125;82;21353;-72
2021/01/13 02:29:17;;;;;;;21.57;10.13;;;;;;;16.37;34.87;155424.59;1747721;82;21854;-71
2021/01/13 02:32:02;;;;;;;17.92;8.70;;;;;;;16.34;34.86;155416.67;1721537;83;21737;-75
2021/01/13 02:34:49;;;;;;;23.00;10.55;;;;;;;16.35;34.85;155417.97;1736633;82;21185;-71
2021/01/13 02:37:43;;;;;;;24.67;10.43;;;;;;;16.37;35.06;155423.25;1699175;84;21493;-72
2021/01/13 02:40:22;;;;;;;19.45;10.23;;;;;;;16.36;34.90;155420.59;1699254;84;21327;-72
2021/01/13 02:43:02;;;;;;;21.10;10.40;;;;;;;16.29;34.91;155403.42;1710721;83;21868;-71
2021/01/13 02:45:43;;;;;;;21.00;9.78;;;;;;;16.33;34.87;155414.03;1720481;83;21332;-72
2021/01/13 02:48:20;;;;;;;16.45;9.73;;;;;;;16.32;34.95;155411.39;1732260;83;21376;-71
2021/01/13 02:51:00;;;;;;;16.00;9.50;;;;;;;16.34;34.82;155415.33;1750229;82;21831;-72
2021/01/13 02:53:37;;;;;;;18.55;8.95;;;;;;;16.29;34.88;155402.13;1731702;83;21202;-71
2021/01/13 02:56:19;;;;;;;17.70;9.58;;;;;;;16.27;34.86;155398.14;1744765;82;21945;-71
2021/01/13 02:58:56;;;;;;;19.40;9.30;;;;;;;16.20;34.85;155378.42;1728268;83;21874;-71
2021/01/13 03:01:30;;;;;;;21.68;10.00;;;;;;;16.25;38.67;155391.56;1705580;83;21167;-73
2021/01/13 03:04:03;;;;;;;19.48;9.93;;;;;;;16.23;37.68;155385.00;1705321;83;21345;-74
2021/01/13 03:06:38;;;;;;;19.52;9.68;;;;;;;16.25;37.26;155391.56;1750628;82;21248;-73
2021/01/13 03:09:11;;;;;;;15.95;9.23;;;;;;;16.25;36.52;155391.56;1732161;83;21265;-72
2021/01/13 03:11:45;;;;;;;18.00;8.83;;;;;;;16.30;35.83;155406.11;1729486;82;21181;-73
2021/01/13 03:14:22;;;;;;;19.77;8.75;;;;;;;16.26;35.53;155394.20;1701669;84;21204;-72
2021/01/13 03:17:15;;;;;;;12.58;7.67;;;;;;;16.26;35.32;155394.20;1701799;84;21446;-73
2021/01/13 03:20:17;;;;;;;15.13;7.85;;;;;;;16.27;35.31;155398.14;1701711;84;21359;-72
2021/01/13 03:23:15;;;;;;;15.70;9.33;;;;;;;16.31;34.92;155407.45;1702078;84;21347;-72
2021/01/13 03:26:04;;;;;;;17.32;9.28;;;;;;;16.33;35.06;155412.69;1701748;84;21732;-73
2021/01/13 03:28:39;;;;;;;15.30;8.15;;;;;;;16.38;34.93;155425.87;1702433;84;21449;-73
2021/01/13 03:31:18;;;;;;;19.90;9.33;;;;;;;16.34;34.81;155415.33;1702910;83;21346;-72
2021/01/13 03:34:24;;;;;;;17.92;9.05;;;;;;;16.32;34.65;155410.05;1702208;84;21334;-73
2021/01/13 03:37:13;;;;;;;17.55;8.68;;;;;;;16.29;34.85;155403.42;1702396;84;21248;-73
2021/01/13 03:39:45;;;;;;;22.45;10.53;;;;;;;16.30;34.85;155406.11;1702329;84;21370;-72
2021/01/13 03:42:18;;;;;;;18.10;9.80;;;;;;;16.32;34.92;155410.05;1700407;83;21372;-72
2021/01/13 03:44:51;;;;;;;16.93;8.48;;;;;;;16.33;34.92;155412.69;1665874;85;21300;-73
2021/01/13 03:47:43;;;;;;;16.97;8.98;;;;;;;16.38;34.80;155425.87;1684077;84;21206;-72
2021/01/13 03:50:33;;;;;;;18.85;8.25;;;;;;;16.37;34.87;155424.59;1684365;83;21369;-74
2021/01/13 03:53:09;;;;;;;13.70;7.83;;;;;;;16.38;34.82;155425.87;1710471;84;21330;-72
2021/01/13 03:55:43;;;;;;;13.35;7.60;;;;;;;16.41;34.79;155433.81;1710302;84;21212;-72
2021/01/13 03:58:38;;;;;;;12.50;7.00;;;;;;;16.38;34.69;155427.17;1710462;84;21350;-72
2021/01/13 04:01:27;;;;;;;11.03;6.95;;;;;;;16.39;34.67;155428.52;1710915;82;21760;-72
2021/01/13 04:04:10;;;;;;;13.50;7.30;;;;;;;16.40;34.61;155432.45;1697545;83;21979;-73
2021/01/13 04:06:44;;;;;;;10.98;6.20;;;;;;;16.43;34.66;155440.38;1680381;85;21403;-72
2021/01/13 04:09:18;;;;;;;14.23;7.35;;;;;;;16.45;34.55;155444.31;1705868;83;21243;-73
2021/01/13 04:11:51;;;;;;;11.63;6.78;;;;;;;16.44;34.67;155441.67;1721282;83;21370;-74
2021/01/13 04:14:23;;;;;;;12.33;7.33;;;;;;;16.49;34.73;155454.88;1721433;83;21236;-73
2021/01/13 04:16:55;;;;;;;11.90;7.40;;;;;;;16.52;34.65;155464.08;1720417;83;21199;-73
2021/01/13 04:19:28;;;;;;;13.25;7.58;;;;;;;16.52;34.61;155464.08;1739935;82;21844;-72
2021/01/13 04:22:04;;;;;;;13.43;7.12;;;;;;;16.46;34.54;155446.95;1701217;83;21259;-73
2021/01/13 04:24:36;;;;;;;12.75;7.25;;;;;;;16.45;34.54;155444.31;1692465;85;21207;-73
2021/01/13 04:27:11;;;;;;;11.90;7.35;;;;;;;16.45;34.64;155444.31;1692543;85;21742;-72
2021/01/13 04:29:44;;;;;;;15.45;7.67;;;;;;;16.46;34.67;155446.95;1692669;84;21227;-73
2021/01/13 04:32:17;;;;;;;15.88;8.25;;;;;;;16.43;34.58;155440.38;1709290;83;21333;-73
2021/01/13 04:34:49;;;;;;;15.53;8.20;;;;;;;16.41;34.69;155435.09;1739819;82;21209;-73
2021/01/13 04:37:21;;;;;;;15.20;7.95;;;;;;;16.50;34.75;155458.80;1721620;83;21223;-73
2021/01/13 04:39:54;;;;;;;15.83;7.92;;;;;;;16.57;34.72;155475.94;1739946;82;21340;-72
2021/01/13 04:42:30;;;;;;;14.35;7.85;;;;;;;16.58;34.65;155479.92;1697828;83;21346;-72
2021/01/13 04:45:07;;;;;;;13.62;7.62;;;;;;;16.57;34.70;155477.28;1739820;82;21162;-73
2021/01/13 04:47:52;;;;;;;14.73;7.65;;;;;;;16.60;34.71;155485.20;1726810;83;21203;-73
2021/01/13 04:50:24;;;;;;;10.80;6.40;;;;;;;16.59;34.72;155481.22;1743038;82;21677;-73
2021/01/13 04:52:57;;;;;;;15.40;7.70;;;;;;;16.62;34.73;155490.44;1721907;83;21384;-74
2021/01/13 04:55:29;;;;;;;15.63;7.12;;;;;;;16.64;34.72;155494.42;1748013;82;21181;-73
2021/01/13 04:58:27;;;;;;;15.43;7.60;;;;;;;16.65;34.79;155497.06;1711709;83;21368;-73
2021/01/13 05:01:19;;;;;;;16.20;8.43;;;;;;;16.64;34.69;155494.42;1731973;83;21360;-72
2021/01/13 05:04:25;;;;;;;13.32;7.58;;;;;;;16.58;34.64;155479.92;1746430;82;21204;-72
2021/01/13 05:07:25;;;;;;;14.53;8.53;;;;;;;16.52;34.63;155464.08;1721328;83;21195;-72
2021/01/13 05:10:16;;;;;;;15.83;8.23;;;;;;;16.48;34.76;155453.56;1659285;82;21368;-72
2021/01/13 05:12:56;;;;;;;17.17;8.90;;;;;;;16.51;34.82;155461.44;1731089;82;21180;-72
2021/01/13 05:15:33;;;;;;;14.85;8.53;;;;;;;16.44;34.94;155443.02;1715283;82;21324;-72
2021/01/13 05:18:10;;;;;;;15.88;8.00;;;;;;;16.41;34.89;155433.81;1715074;82;21721;-72
2021/01/13 05:20:43;;;;;;;16.42;8.55;;;;;;;16.31;34.93;155407.45;1715270;83;21316;-72
2021/01/13 05:23:16;;;;;;;15.50;8.18;;;;;;;16.28;35.05;155399.48;1715195;83;21189;-71
2021/01/13 05:25:50;;;;;;;17.85;9.33;;;;;;;16.26;35.05;155392.91;1715213;83;21367;-72
2021/01/13 05:28:26;;;;;;;18.40;8.40;;;;;;;16.26;35.13;155394.20;1714946;83;21402;-72
2021/01/13 05:31:00;;;;;;;18.75;9.70;;;;;;;16.24;35.08;155387.62;1737871;82;21174;-72
2021/01/13 05:33:32;;;;;;;15.08;8.23;;;;;;;16.23;35.14;155385.00;1699310;84;21748;-71
2021/01/13 05:36:07;;;;;;;17.77;9.85;;;;;;;16.31;35.15;155407.45;1723139;82;21217;-71
2021/01/13 05:39:16;;;;;;;16.80;9.25;;;;;;;16.33;35.22;155412.69;1733046;82;21856;-72
2021/01/13 05:41:43;;;;;;;16.93;9.03;;;;;;;16.31;35.17;155407.45;1712440;82;21225;-74
2021/01/13 05:44:16;;;;;;;16.37;9.93;;;;;;;16.33;35.18;155414.03;1710576;82;21197;-65
2021/01/13 05:46:49;;;;;;;19.75;9.70;;;;;;;16.37;35.14;155423.25;1720050;82;21871;-65
2021/01/13 05:49:21;;;;;;;20.77;10.32;;;;;;;16.41;35.16;155435.09;1730750;82;21206;-65
2021/01/13 05:51:54;;;;;;;19.95;10.28;;;;;;;16.43;35.20;155440.38;1750224;82;21376;-65
2021/01/13 05:54:27;;;;;;;19.02;9.25;;;;;;;16.41;35.21;155435.09;1715031;82;21404;-65
2021/01/13 05:56:59;;;;;;;22.48;10.15;;;;;;;16.41;35.17;155433.81;1666616;82;21777;-66
2021/01/13 05:59:34;;;;;;;20.00;9.95;;;;;;;16.40;35.16;155431.16;1728483;82;21206;-66
2021/01/13 06:02:07;;;;;;;18.37;10.08;;;;;;;16.32;35.09;155410.05;1721042;82;21182;-66
2021/01/13 06:04:40;;;;;;;17.85;9.50;;;;;;;16.35;35.20;155417.97;1724365;82;21241;-72
2021/01/13 06:07:24;;;;;;;21.10;10.53;;;;;;;16.38;35.17;155427.17;1707037;82;22560;-73
2021/01/13 06:09:58;;;;;;;19.55;9.78;;;;;;;16.45;35.22;155445.66;1726986;82;21182;-72
2021/01/13 06:12:31;;;;;;;20.12;9.68;;;;;;;16.52;35.21;155464.08;1725108;82;21233;-72
2021/01/13 06:15:04;;;;;;;19.52;9.65;;;;;;;16.50;35.14;155457.50;1725291;82;21292;-71
2021/01/13 06:17:37;;;;;;;19.15;10.08;;;;;;;16.45;35.09;155444.31;1699822;82;22709;-72
2021/01/13 06:20:10;;;;;;;23.27;11.15;;;;;;;16.29;35.17;155403.42;1697564;82;21206;-72
2021/01/13 06:22:43;;;;;;;20.37;11.33;;;;;;;16.32;35.25;155410.05;1723388;82;21190;-69
2021/01/13 06:25:21;;;;;;;20.45;10.28;;;;;;;16.40;35.19;155431.16;1739700;82;21182;-61
2021/01/13 06:28:07;;;;;;;21.15;10.72;;;;;;;16.44;35.32;155441.67;1698780;82;21314;-63
2021/01/13 06:30:43;;;;;;;22.45;11.15;;;;;;;16.49;35.27;155454.88;1726780;82;21257;-73
2021/01/13 06:33:24;;;;;;;18.05;9.88;;;;;;;16.40;35.24;155432.45;1732594;82;21309;-68
2021/01/13 06:36:33;;;;;;;23.80;11.48;;;;;;;16.38;35.18;155427.17;1723432;82;21269;-66
2021/01/13 06:39:09;;;;;;;22.75;12.15;;;;;;;16.29;35.25;155403.42;1715741;82;21665;-64
2021/01/13 06:41:48;;;;;;;22.40;12.45;;;;;;;16.36;35.36;155421.95;1729349;82;21201;-67
2021/01/13 06:44:20;;;;;;;24.95;12.43;;;;;;;16.51;35.33;155460.16;1725786;82;21313;-67
2021/01/13 06:46:53;;;;;;;21.97;11.10;;;;;;;16.56;35.21;155474.64;1733919;82;21291;-66
2021/01/13 06:49:26;;;;;;;22.22;10.63;;;;;;;16.53;35.30;155465.42;1690185;83;21166;-65
2021/01/13 06:51:58;;;;;;;23.47;11.55;;;;;;;16.61;35.21;155487.78;1705384;83;21329;-64
2021/01/13 06:54:31;;;;;;;29.95;13.43;;;;;;;16.67;35.25;155502.28;1706312;83;21393;-67
2021/01/13 06:57:03;;;;;;;21.97;11.50;;;;;;;16.75;35.15;155524.70;1703176;82;21441;-64
2021/01/13 06:59:39;;;;;;;27.42;12.23;;;;;;;16.77;35.22;155528.69;1708181;83;21247;-64
2021/01/13 07:02:11;;;;;;;21.55;11.03;;;;;;;16.82;35.12;155541.84;1701339;83;21270;-64
2021/01/13 07:04:47;;;;;;;23.60;11.28;;;;;;;16.81;34.91;155539.20;1705291;83;22448;-66
2021/01/13 07:07:19;;;;;;;23.42;11.75;;;;;;;16.90;34.85;155564.27;1745258;81;21211;-66
2021/01/13 07:09:53;;;;;;;25.23;12.10;;;;;;;16.92;34.94;155568.20;1755846;81;21843;-63
2021/01/13 07:12:27;;;;;;;27.25;13.03;;;;;;;16.94;35.00;155573.48;1764262;80;21151;-64
2021/01/13 07:14:59;;;;;;;25.00;11.75;;;;;;;16.95;34.93;155577.47;1755865;81;21304;-63
2021/01/13 07:17:33;;;;;;;28.42;12.60;;;;;;;16.89;34.81;155561.63;1749763;81;21225;-62
2021/01/13 07:20:06;;;;;;;24.98;11.75;;;;;;;16.83;34.90;155544.48;1736800;81;21412;-62
2021/01/13 07:22:40;;;;;;;22.87;11.10;;;;;;;16.76;34.99;155527.34;1744823;81;21404;-69
2021/01/13 07:25:15;;;;;;;28.77;13.40;;;;;;;16.72;35.04;155516.78;1747953;79;21305;-69
2021/01/13 07:27:47;;;;;;;22.87;11.65;;;;;;;16.64;35.13;155494.42;1755023;81;21305;-68
2021/01/13 07:30:20;;;;;;;21.87;11.80;;;;;;;16.65;35.10;155497.06;1756291;80;21202;-63
2021/01/13 07:33:00;;;;;;;25.48;11.78;;;;;;;16.54;35.25;155468.06;1746790;81;21328;-63
2021/01/13 07:35:32;;;;;;;23.20;12.47;;;;;;;16.54;35.28;155469.36;1747478;80;21888;-62
2021/01/13 07:38:06;;;;;;;25.40;12.18;;;;;;;16.59;35.43;155481.22;1712341;81;21241;-62
2021/01/13 07:40:38;;;;;;;24.18;11.90;;;;;;;16.68;35.40;155504.92;1746395;80;21218;-64
2021/01/13 07:43:12;;;;;;;24.82;11.63;;;;;;;16.74;35.38;155522.06;1742931;81;21459;-64
2021/01/13 07:45:53;;;;;;;24.27;12.60;;;;;;;16.97;35.13;155581.41;1750279;80;21219;-65
2021/01/13 07:48:53;;;;;;;23.25;11.10;;;;;;;16.79;35.43;155533.92;1745755;80;21198;-65
2021/01/13 07:51:28;;;;;;;24.63;12.20;;;;;;;16.82;35.44;155541.84;1746557;79;21364;-64
2021/01/13 07:54:08;;;;;;;24.80;12.33;;;;;;;16.86;35.35;155552.41;1740604;79;21376;-68
2021/01/13 07:56:40;;;;;;;28.47;13.25;;;;;;;16.87;35.33;155555.05;1746226;79;21304;-64
2021/01/13 07:59:35;;;;;;;28.62;13.95;;;;;;;16.87;35.30;155555.05;1736488;81;21384;-74
2021/01/13 08:02:39;;;;;;;24.70;13.72;;;;;;;16.86;35.29;155553.70;1746805;79;21345;-68
2021/01/13 08:05:56;;;;;;;27.07;12.80;;;;;;;16.91;35.29;155565.56;1748383;80;21175;-70
2021/01/13 08:08:50;;;;;;;27.85;12.70;;;;;;;17.02;35.28;155594.56;1748755;81;21837;-66
2021/01/13 08:12:14;;;;;;;27.15;13.55;;;;;;;17.18;35.27;155636.77;1747076;81;21203;-66
2021/01/13 08:15:25;;;;;;;30.27;12.47;;;;;;;17.22;35.26;155649.98;1746111;81;21222;-66
2021/01/13 08:18:14;;;;;;;26.73;12.00;;;;;;;17.22;35.11;155648.62;1746126;80;21321;-69
2021/01/13 08:21:17;;;;;;;24.72;12.58;;;;;;;17.20;34.92;155643.34;1745701;81;21439;-69
2021/01/13 08:24:06;;;;;;;28.50;13.25;;;;;;;17.15;34.92;155628.84;1751362;80;21424;-75
2021/01/13 08:26:35;;;;;;;33.70;16.07;;;;;;;17.13;34.96;155623.61;1737775;81;22755;-70
2021/01/13 08:29:20;;;;;;;27.15;12.58;;;;;;;17.09;34.85;155614.34;1736559;81;21328;-70
2021/01/13 08:34:53;;;;;;;26.00;12.73;;;;;;;17.12;35.00;155620.97;1745843;81;21384;-73
2021/01/13 08:37:21;;;;;;;23.05;11.50;;;;;;;17.27;34.90;155663.14;1749671;81;21298;-70
2021/01/13 08:39:55;;;;;;;24.45;11.93;;;;;;;17.52;34.75;155727.84;1733687;81;21257;-68
2021/01/13 08:42:29;;;;;;;29.37;13.90;;;;;;;17.64;34.66;155760.80;1748538;80;21317;-67
2021/01/13 08:45:24;;;;;;;34.60;15.48;;;;;;;17.83;34.63;155810.91;1747374;79;21321;-66
2021/01/13 08:48:10;;;;;;;36.08;16.77;;;;;;;17.91;34.18;155832.05;1663119;84;21299;-69
2021/01/13 08:50:44;;;;;;;27.55;11.95;;;;;;;17.94;34.37;155839.92;1661525;85;21360;-69
2021/01/13 08:53:24;;;;;;;27.73;13.53;;;;;;;17.87;34.06;155820.19;1662861;84;21399;-68
2021/01/13 08:55:58;;;;;;;24.37;12.07;;;;;;;17.78;34.15;155796.39;1662425;85;21399;-68
2021/01/13 08:58:35;;;;;;;22.52;11.10;;;;;;;17.84;33.99;155812.25;1662848;85;21418;-69
2021/01/13 09:01:10;;;;;;;21.87;10.50;;;;;;;17.81;34.05;155805.67;1662753;85;21217;-67
2021/01/13 09:03:44;;;;;;;27.13;12.20;;;;;;;17.75;34.12;155788.52;1663756;84;21455;-67
2021/01/13 09:06:29;;;;;;;26.25;12.40;;;;;;;17.80;34.01;155803.02;1661901;85;21435;-68
2021/01/13 09:09:13;;;;;;;25.05;12.43;;;;;;;17.83;33.97;155809.61;1654816;85;21308;-66
2021/01/13 09:11:51;;;;;;;20.43;10.35;;;;;;;17.90;34.17;155829.41;1636896;85;21208;-71
2021/01/13 09:14:27;;;;;;;14.00;8.18;;;;;;;18.02;33.88;155859.72;1636055;86;21200;-69
2021/01/13 09:17:07;;;;;;;18.60;9.73;;;;;;;17.90;33.88;155828.06;1637009;85;21200;-71
2021/01/13 09:19:45;;;;;;;16.75;9.38;;;;;;;17.81;33.97;155805.67;1628182;86;21252;-70
2021/01/13 09:22:18;;;;;;;17.35;9.33;;;;;;;17.70;33.95;155775.30;1637188;86;21271;-68
2021/01/13 09:24:59;;;;;;;16.35;8.15;;;;;;;17.73;33.96;155783.22;1634288;86;21318;-69
2021/01/13 09:28:00;;;;;;;14.95;7.75;;;;;;;17.65;33.88;155762.14;1634067;85;21276;-69
2021/01/13 09:30:44;;;;;;;15.78;8.35;;;;;;;17.73;33.84;155784.53;1632321;85;21263;-69
2021/01/13 09:33:19;;;;;;;15.88;8.38;;;;;;;17.68;33.73;155771.36;1634350;86;21259;-68
2021/01/13 09:36:06;;;;;;;17.55;8.70;;;;;;;17.58;33.91;155743.64;1635038;86;21731;-65
2021/01/13 09:38:44;;;;;;;16.65;8.28;;;;;;;17.55;33.96;155735.72;1633338;86;21755;-66
2021/01/13 09:41:38;;;;;;;16.52;7.53;;;;;;;17.57;33.81;155741.00;1635529;86;21260;-67
2021/01/13 09:44:30;;;;;;;39.73;8.00;;;;;;;17.54;33.79;155733.06;1636124;85;21251;-66
2021/01/13 09:47:24;;;;;;;11.70;6.30;;;;;;;17.53;33.67;155730.48;1633579;85;21229;-70
2021/01/13 09:49:57;;;;;;;12.30;6.95;;;;;;;17.49;33.75;155719.91;1630215;86;21364;-74
2021/01/13 09:52:43;;;;;;;10.95;5.87;;;;;;;17.49;33.79;155719.91;1630018;86;21285;-73
2021/01/13 09:55:16;;;;;;;12.33;5.97;;;;;;;17.44;33.77;155706.70;1632040;86;21214;-74
2021/01/13 09:57:51;;;;;;;11.22;5.95;;;;;;;17.48;33.74;155717.27;1629744;86;21808;-75
2021/01/13 10:00:49;;;;;;;;;;;;;;;;;;;;;
2021/01/13 10:11:03;;;;;;;13.38;7.25;;;;;;;17.62;33.65;155754.20;1589700;88;21305;-79
2021/01/13 10:13:39;;;;;;;13.25;6.92;;;;;;;17.69;33.55;155774.00;1593534;88;21816;-75
2021/01/13 10:16:13;;;;;;;13.15;7.08;;;;;;;17.68;33.65;155771.36;1593091;88;21389;-76
2021/01/13 10:18:54;;;;;;;10.10;6.00;;;;;;;17.69;33.63;155772.66;1592661;88;21200;-79
2021/01/13 10:21:45;;;;;;;14.13;7.58;;;;;;;17.66;33.55;155764.73;1623043;86;21246;-78
2021/01/13 10:24:18;;;;;;;25.65;10.60;;;;;;;17.57;33.55;155741.00;1629194;86;21734;-81
2021/01/13 10:26:52;;;;;;;16.45;7.58;;;;;;;17.63;33.69;155758.16;1628063;88;21907;-75
2021/01/13 10:29:25;;;;;;;14.10;7.22;;;;;;;17.58;33.75;155744.98;1628241;86;21399;-74
2021/01/13 10:31:58;;;;;;;13.83;7.28;;;;;;;17.47;33.66;155715.97;1627968;86;21780;-73
2021/01/13 10:34:31;;;;;;;13.13;6.90;;;;;;;17.43;33.80;155705.41;1620311;86;21286;-76
2021/01/13 10:37:04;;;;;;;16.75;9.10;;;;;;;17.14;34.02;155626.20;1627682;86;21293;-75
2021/01/13 10:39:37;;;;;;;15.85;8.13;;;;;;;16.97;34.29;155582.70;1627457;86;21353;-76
2021/01/13 10:42:10;;;;;;;17.45;9.20;;;;;;;17.12;34.29;155622.27;1627824;86;21422;-78
2021/01/13 10:44:43;;;;;;;17.95;8.10;;;;;;;17.25;34.45;155657.84;1627619;86;21242;-75
2021/01/13 10:47:16;;;;;;;20.30;9.73;;;;;;;17.43;34.18;155704.06;1627951;88;21297;-72
2021/01/13 10:49:50;;;;;;;19.42;9.75;;;;;;;17.48;34.19;155717.27;1579764;89;21566;-71
2021/01/13 10:52:24;;;;;;;11.03;6.70;;;;;;;17.18;34.26;155638.12;1596813;88;21278;-71
2021/01/13 10:54:56;;;;;;;11.93;6.37;;;;;;;17.34;34.07;155681.69;1598794;88;21331;-72
2021/01/13 10:57:32;;;;;;;10.38;6.17;;;;;;;17.29;33.80;155668.47;1608266;88;21196;-73
2021/01/13 11:00:12;;;;;;;13.45;5.92;;;;;;;16.96;34.04;155578.77;1608054;87;21368;-72
2021/01/13 11:02:51;;;;;;;11.55;5.47;;;;;;;17.02;34.13;155595.91;1608043;87;21236;-72
2021/01/13 11:05:24;;;;;;;9.03;4.97;;;;;;;17.13;33.93;155624.91;1607757;87;21324;-72
2021/01/13 11:07:57;;;;;;;8.85;5.08;;;;;;;17.00;34.01;155590.63;1608008;87;21196;-71
2021/01/13 11:10:30;;;;;;;9.00;4.90;;;;;;;16.99;34.19;155586.69;1608335;87;21220;-70
2021/01/13 11:13:08;;;;;;;9.25;4.12;;;;;;;17.22;33.96;155649.98;1608331;87;21227;-71
2021/01/13 11:15:40;;;;;;;10.03;5.17;;;;;;;17.21;33.70;155645.98;1608664;87;21261;-72
2021/01/13 11:18:13;;;;;;;8.28;4.92;;;;;;;17.00;33.99;155590.63;1608560;87;21271;-72
2021/01/13 11:20:46;;;;;;;12.85;6.60;;;;;;;16.97;34.14;155582.70;1608422;87;21278;-72
2021/01/13 11:23:18;;;;;;;10.28;5.65;;;;;;;16.95;34.14;155577.47;1609337;87;21208;-71
2021/01/13 11:25:50;;;;;;;14.80;6.35;;;;;;;16.97;34.04;155582.70;1607662;87;21220;-70
2021/01/13 11:28:23;;;;;;;16.45;7.05;;;;;;;17.17;34.03;155635.47;1619798;87;21588;-70
2021/01/13 11:30:55;;;;;;;9.83;5.28;;;;;;;17.29;33.81;155668.47;1600919;87;21252;-71
2021/01/13 11:33:28;;;;;;;7.45;4.37;;;;;;;16.95;33.91;155576.13;1608717;87;21215;-71
2021/01/13 11:36:01;;;;;;;7.55;4.92;;;;;;;17.25;33.72;155656.56;1608671;87;21256;-71
2021/01/13 11:38:56;;;;;;;8.78;4.67;;;;;;;17.35;33.50;155682.97;1600305;88;21203;-71
2021/01/13 11:41:49;;;;;;;8.73;4.28;;;;;;;17.28;33.50;155664.48;1608234;87;21317;-70
2021/01/13 11:44:36;;;;;;;6.97;4.05;;;;;;;17.23;33.46;155651.28;1608054;87;21291;-71
2021/01/13 11:47:19;;;;;;;8.93;5.12;;;;;;;17.05;33.57;155603.83;1607509;87;21291;-73
2021/01/13 11:49:55;;;;;;;15.38;6.40;;;;;;;16.98;33.66;155584.05;1636183;85;21808;-75
2021/01/13 11:52:30;;;;;;;10.65;5.35;;;;;;;17.00;33.68;155590.63;1656815;85;21245;-74
2021/01/13 11:55:06;;;;;;;6.20;4.22;;;;;;;17.05;33.73;155602.48;1656600;85;21419;-73
2021/01/13 11:57:47;;;;;;;8.38;4.33;;;;;;;16.99;33.77;155587.98;1656729;85;21403;-73
2021/01/13 12:00:23;;;;;;;7.08;4.70;;;;;;;16.75;33.91;155524.70;1656167;85;21249;-74
2021/01/13 12:02:58;;;;;;;6.78;4.08;;;;;;;16.32;34.05;155410.05;1654221;85;21257;-73
2021/01/13 12:05:34;;;;;;;8.60;4.67;;;;;;;16.20;34.19;155378.42;1654410;85;21396;-76
2021/01/13 12:08:17;;;;;;;6.83;3.87;;;;;;;16.59;33.91;155481.22;1655228;85;21859;-75
2021/01/13 12:10:52;;;;;;;8.38;4.35;;;;;;;16.66;33.69;155499.69;1654887;85;21737;-74
2021/01/13 12:13:35;;;;;;;11.38;4.42;;;;;;;16.64;33.57;155494.42;1655705;85;21273;-74
2021/01/13 12:16:09;;;;;;;6.20;4.00;;;;;;;16.27;33.93;155398.14;1655361;84;21910;-72